sensor_id;sensor_type;location;lat;lon;timestamp;pressure;altitude;pressure_sealevel;temperature;humidity
48364;BME280;34170;54.364;18.582;2022-12-18T00:01:35;101625.50;;;-5.33;100.00
48364;BME280;34170;54.364;18.582;2022-12-18T00:04:05;101581.28;;;-5.78;100.00
48364;BME280;34170;54.364;18.582;2022-12-18T00:06:36;101576.09;;;-5.91;100.00
48364;BME280;34170;54.364;18.582;2022-12-18T00:09:03;101632.72;;;-5.64;100.00
48364;BME280;34170;54.364;18.582;2022-12-18T00:11:31;101633.47;;;-5.47;100.00
48364;BME280;34170;54.364;18.582;2022-12-18T00:13:59;101592.69;;;-5.88;100.00
48364;BME280;34170;54.364;18.582;2022-12-18T00:16:28;101591.94;;;-6.05;100.00
48364;BME280;34170;54.364;18.582;2022-12-18T00:18:59;101654.66;;;-5.79;100.00
48364;BME280;34170;54.364;18.582;2022-12-18T00:21:28;101600.69;;;-6.08;100.00
48364;BME280;34170;54.364;18.582;2022-12-18T00:23:56;101643.28;;;-5.81;100.00
48364;BME280;34170;54.364;18.582;2022-12-18T00:26:34;101630.22;;;-5.90;100.00
48364;BME280;34170;54.364;18.582;2022-12-18T00:29:05;101651.91;;;-5.64;100.00
48364;BME280;34170;54.364;18.582;2022-12-18T00:31:33;101639.78;;;-5.79;100.00
48364;BME280;34170;54.364;18.582;2022-12-18T00:34:01;101645.94;;;-5.90;100.00
48364;BME280;34170;54.364;18.582;2022-12-18T00:36:32;101626.75;;;-5.93;100.00
48364;BME280;34170;54.364;18.582;2022-12-18T00:39:03;101609.50;;;-6.35;100.00
48364;BME280;34170;54.364;18.582;2022-12-18T00:41:31;101619.16;;;-6.42;100.00
48364;BME280;34170;54.364;18.582;2022-12-18T00:44:18;101653.97;;;-6.21;100.00
48364;BME280;34170;54.364;18.582;2022-12-18T00:46:46;101640.13;;;-6.62;100.00
48364;BME280;34170;54.364;18.582;2022-12-18T00:49:16;101649.69;;;-6.45;100.00
48364;BME280;34170;54.364;18.582;2022-12-18T00:51:43;101658.38;;;-6.37;100.00
48364;BME280;34170;54.364;18.582;2022-12-18T00:54:11;101658.38;;;-6.36;100.00
48364;BME280;34170;54.364;18.582;2022-12-18T00:56:38;101630.53;;;-6.64;100.00
48364;BME280;34170;54.364;18.582;2022-12-18T00:59:16;101652.25;;;-6.30;100.00
48364;BME280;34170;54.364;18.582;2022-12-18T01:01:43;101614.00;;;-6.76;100.00
48364;BME280;34170;54.364;18.582;2022-12-18T01:04:12;101641.00;;;-6.63;100.00
48364;BME280;34170;54.364;18.582;2022-12-18T01:06:40;101658.34;;;-6.25;100.00
48364;BME280;34170;54.364;18.582;2022-12-18T01:09:07;101648.78;;;-6.30;100.00
48364;BME280;34170;54.364;18.582;2022-12-18T01:11:36;101674.97;;;-6.30;100.00
48364;BME280;34170;54.364;18.582;2022-12-18T01:14:04;101635.78;;;-6.61;100.00
48364;BME280;34170;54.364;18.582;2022-12-18T01:16:31;101662.72;;;-6.22;100.00
48364;BME280;34170;54.364;18.582;2022-12-18T01:18:58;101646.19;;;-6.43;100.00
48364;BME280;34170;54.364;18.582;2022-12-18T01:21:27;101641.00;;;-6.66;100.00
48364;BME280;34170;54.364;18.582;2022-12-18T01:23:55;101692.41;;;-6.33;100.00
48364;BME280;34170;54.364;18.582;2022-12-18T01:26:24;101634.91;;;-6.68;100.00
48364;BME280;34170;54.364;18.582;2022-12-18T01:28:54;101680.22;;;-6.47;100.00
48364;BME280;34170;54.364;18.582;2022-12-18T01:31:26;101653.19;;;-6.60;100.00
48364;BME280;34170;54.364;18.582;2022-12-18T01:33:54;101680.16;;;-6.23;100.00
48364;BME280;34170;54.364;18.582;2022-12-18T01:36:26;101670.56;;;-6.21;100.00
48364;BME280;34170;54.364;18.582;2022-12-18T01:38:53;101654.00;;;-6.35;100.00
48364;BME280;34170;54.364;18.582;2022-12-18T01:41:25;101657.53;;;-6.35;100.00
48364;BME280;34170;54.364;18.582;2022-12-18T01:43:55;101689.78;;;-6.26;100.00
48364;BME280;34170;54.364;18.582;2022-12-18T01:46:25;101647.84;;;-6.11;100.00
48364;BME280;34170;54.364;18.582;2022-12-18T01:48:58;101691.28;;;-5.73;100.00
48364;BME280;34170;54.364;18.582;2022-12-18T01:51:27;101678.06;;;-5.48;100.00
48364;BME280;34170;54.364;18.582;2022-12-18T01:53:57;101637.97;;;-5.66;100.00
48364;BME280;34170;54.364;18.582;2022-12-18T01:56:26;101683.16;;;-5.24;100.00
48364;BME280;34170;54.364;18.582;2022-12-18T01:58:58;101691.75;;;-5.06;100.00
48364;BME280;34170;54.364;18.582;2022-12-18T02:01:29;101694.34;;;-5.00;100.00
48364;BME280;34170;54.364;18.582;2022-12-18T02:04:23;101699.50;;;-4.92;100.00
48364;BME280;34170;54.364;18.582;2022-12-18T02:09:59;101689.78;;;-4.80;100.00
48364;BME280;34170;54.364;18.582;2022-12-18T02:12:39;101703.75;;;-4.74;100.00
48364;BME280;34170;54.364;18.582;2022-12-18T02:18:11;101696.56;;;-4.55;100.00
48364;BME280;34170;54.364;18.582;2022-12-18T02:26:22;101710.41;;;-4.38;100.00
48364;BME280;34170;54.364;18.582;2022-12-18T02:29:02;101706.88;;;-4.37;100.00
48364;BME280;34170;54.364;18.582;2022-12-18T02:31:40;101712.16;;;-4.38;100.00
48364;BME280;34170;54.364;18.582;2022-12-18T02:34:10;101718.50;;;-4.61;100.00
48364;BME280;34170;54.364;18.582;2022-12-18T02:36:41;101709.69;;;-4.54;100.00
48364;BME280;34170;54.364;18.582;2022-12-18T02:39:12;101720.34;;;-4.72;100.00
48364;BME280;34170;54.364;18.582;2022-12-18T02:41:51;101725.44;;;-4.52;100.00
48364;BME280;34170;54.364;18.582;2022-12-18T02:44:21;101718.31;;;-4.39;100.00
48364;BME280;34170;54.364;18.582;2022-12-18T02:46:52;101720.16;;;-4.51;100.00
48364;BME280;34170;54.364;18.582;2022-12-18T02:57:54;101733.22;;;-4.42;100.00
48364;BME280;34170;54.364;18.582;2022-12-18T03:03:36;101726.38;;;-4.61;100.00
48364;BME280;34170;54.364;18.582;2022-12-18T03:06:10;101727.31;;;-4.67;100.00
48364;BME280;34170;54.364;18.582;2022-12-18T03:08:43;101727.25;;;-4.61;100.00
48364;BME280;34170;54.364;18.582;2022-12-18T03:11:14;101737.53;;;-4.34;100.00
48364;BME280;34170;54.364;18.582;2022-12-18T03:13:49;101738.50;;;-4.45;100.00
48364;BME280;34170;54.364;18.582;2022-12-18T03:16:25;101736.66;;;-4.36;100.00
48364;BME280;34170;54.364;18.582;2022-12-18T03:19:00;101740.19;;;-4.39;100.00
48364;BME280;34170;54.364;18.582;2022-12-18T03:21:38;101731.47;;;-4.43;100.00
48364;BME280;34170;54.364;18.582;2022-12-18T03:24:09;101747.88;;;-4.21;100.00
48364;BME280;34170;54.364;18.582;2022-12-18T03:26:42;101747.88;;;-4.19;100.00
48364;BME280;34170;54.364;18.582;2022-12-18T03:29:21;101743.63;;;-4.32;100.00
48364;BME280;34170;54.364;18.582;2022-12-18T03:31:54;101754.22;;;-4.42;100.00
48364;BME280;34170;54.364;18.582;2022-12-18T03:34:30;101748.44;;;-4.85;100.00
48364;BME280;34170;54.364;18.582;2022-12-18T03:37:02;101756.19;;;-4.67;100.00
48364;BME280;34170;54.364;18.582;2022-12-18T03:39:33;101759.50;;;-4.43;100.00
48364;BME280;34170;54.364;18.582;2022-12-18T03:42:08;101762.22;;;-4.54;100.00
48364;BME280;34170;54.364;18.582;2022-12-18T03:45:03;101771.03;;;-4.61;100.00
48364;BME280;34170;54.364;18.582;2022-12-18T03:47:38;101770.28;;;-4.80;100.00
48364;BME280;34170;54.364;18.582;2022-12-18T03:50:21;101768.47;;;-4.70;100.00
48364;BME280;34170;54.364;18.582;2022-12-18T03:53:16;101775.34;;;-4.57;100.00
48364;BME280;34170;54.364;18.582;2022-12-18T03:55:49;101774.50;;;-4.57;100.00
48364;BME280;34170;54.364;18.582;2022-12-18T03:58:22;101773.91;;;-4.95;100.00
48364;BME280;34170;54.364;18.582;2022-12-18T04:01:00;101781.78;;;-5.00;100.00
48364;BME280;34170;54.364;18.582;2022-12-18T04:03:29;101780.72;;;-4.71;100.00
48364;BME280;34170;54.364;18.582;2022-12-18T04:06:00;101778.91;;;-4.64;100.00
48364;BME280;34170;54.364;18.582;2022-12-18T04:08:29;101796.44;;;-4.65;100.00
48364;BME280;34170;54.364;18.582;2022-12-18T04:11:03;101793.03;;;-4.81;100.00
48364;BME280;34170;54.364;18.582;2022-12-18T04:13:35;101794.69;;;-4.66;100.00
48364;BME280;34170;54.364;18.582;2022-12-18T04:16:07;101805.25;;;-4.76;100.00
48364;BME280;34170;54.364;18.582;2022-12-18T04:18:40;101800.03;;;-4.81;100.00
48364;BME280;34170;54.364;18.582;2022-12-18T04:21:08;101792.28;;;-4.98;100.00
48364;BME280;34170;54.364;18.582;2022-12-18T04:23:36;101782.63;;;-4.90;100.00
48364;BME280;34170;54.364;18.582;2022-12-18T04:26:04;101798.25;;;-4.74;100.00
48364;BME280;34170;54.364;18.582;2022-12-18T04:28:44;101800.06;;;-4.87;100.00
48364;BME280;34170;54.364;18.582;2022-12-18T04:31:12;101793.91;;;-4.83;100.00
48364;BME280;34170;54.364;18.582;2022-12-18T04:33:39;101805.25;;;-4.76;100.00
48364;BME280;34170;54.364;18.582;2022-12-18T04:36:08;101801.84;;;-4.91;100.00
48364;BME280;34170;54.364;18.582;2022-12-18T04:38:37;101806.09;;;-4.68;100.00
48364;BME280;34170;54.364;18.582;2022-12-18T04:41:08;101804.47;;;-4.89;100.00
48364;BME280;34170;54.364;18.582;2022-12-18T04:43:36;101808.81;;;-4.82;100.00
48364;BME280;34170;54.364;18.582;2022-12-18T04:46:07;101817.47;;;-4.72;100.00
48364;BME280;34170;54.364;18.582;2022-12-18T04:48:36;101815.75;;;-4.76;100.00
48364;BME280;34170;54.364;18.582;2022-12-18T04:51:05;101812.19;;;-4.63;100.00
48364;BME280;34170;54.364;18.582;2022-12-18T04:53:33;101814.91;;;-4.82;100.00
48364;BME280;34170;54.364;18.582;2022-12-18T04:56:12;101813.25;;;-4.96;100.00
48364;BME280;34170;54.364;18.582;2022-12-18T04:58:41;101832.34;;;-4.73;100.00
48364;BME280;34170;54.364;18.582;2022-12-18T05:01:09;101828.00;;;-4.75;100.00
48364;BME280;34170;54.364;18.582;2022-12-18T05:03:38;101815.81;;;-4.83;100.00
48364;BME280;34170;54.364;18.582;2022-12-18T05:06:07;101825.34;;;-4.71;100.00
48364;BME280;34170;54.364;18.582;2022-12-18T05:08:35;101825.41;;;-4.85;100.00
48364;BME280;34170;54.364;18.582;2022-12-18T05:11:08;101827.19;;;-4.85;100.00
48364;BME280;34170;54.364;18.582;2022-12-18T05:13:37;101837.59;;;-4.70;100.00
48364;BME280;34170;54.364;18.582;2022-12-18T05:16:06;101844.53;;;-4.63;100.00
48364;BME280;34170;54.364;18.582;2022-12-18T05:18:34;101850.63;;;-4.56;100.00
48364;BME280;34170;54.364;18.582;2022-12-18T05:21:02;101843.75;;;-4.75;100.00
48364;BME280;34170;54.364;18.582;2022-12-18T05:23:30;101840.41;;;-5.05;100.00
48364;BME280;34170;54.364;18.582;2022-12-18T05:25:59;101842.91;;;-4.82;100.00
48364;BME280;34170;54.364;18.582;2022-12-18T05:28:29;101847.38;;;-4.95;100.00
48364;BME280;34170;54.364;18.582;2022-12-18T05:30:59;101848.19;;;-4.85;100.00
48364;BME280;34170;54.364;18.582;2022-12-18T05:33:30;101849.09;;;-4.91;100.00
48364;BME280;34170;54.364;18.582;2022-12-18T05:36:00;101865.63;;;-4.72;100.00
48364;BME280;34170;54.364;18.582;2022-12-18T05:38:29;101842.97;;;-4.91;100.00
48364;BME280;34170;54.364;18.582;2022-12-18T05:40:56;101859.63;;;-4.97;100.00
48364;BME280;34170;54.364;18.582;2022-12-18T05:43:25;101874.47;;;-4.98;100.00
48364;BME280;34170;54.364;18.582;2022-12-18T05:45:53;101864.03;;;-5.05;100.00
48364;BME280;34170;54.364;18.582;2022-12-18T05:48:21;101885.94;;;-5.08;100.00
48364;BME280;34170;54.364;18.582;2022-12-18T05:50:49;101890.22;;;-4.99;100.00
48364;BME280;34170;54.364;18.582;2022-12-18T05:53:19;101884.13;;;-4.98;100.00
48364;BME280;34170;54.364;18.582;2022-12-18T05:55:47;101873.69;;;-5.10;100.00
48364;BME280;34170;54.364;18.582;2022-12-18T05:58:15;101880.63;;;-5.00;100.00
48364;BME280;34170;54.364;18.582;2022-12-18T06:00:44;101884.06;;;-4.89;100.00
48364;BME280;34170;54.364;18.582;2022-12-18T06:03:13;101886.69;;;-4.83;100.00
48364;BME280;34170;54.364;18.582;2022-12-18T06:05:43;101883.25;;;-4.97;100.00
48364;BME280;34170;54.364;18.582;2022-12-18T06:08:12;101892.84;;;-4.98;100.00
48364;BME280;34170;54.364;18.582;2022-12-18T06:10:40;101891.13;;;-4.99;100.00
48364;BME280;34170;54.364;18.582;2022-12-18T06:13:08;101902.44;;;-4.92;100.00
48364;BME280;34170;54.364;18.582;2022-12-18T06:15:36;101901.63;;;-4.97;100.00
48364;BME280;34170;54.364;18.582;2022-12-18T06:18:04;101895.47;;;-4.93;100.00
48364;BME280;34170;54.364;18.582;2022-12-18T06:20:32;101907.69;;;-4.87;100.00
48364;BME280;34170;54.364;18.582;2022-12-18T06:23:00;101909.50;;;-5.00;100.00
48364;BME280;34170;54.364;18.582;2022-12-18T06:25:27;101903.38;;;-5.05;100.00
48364;BME280;34170;54.364;18.582;2022-12-18T06:27:55;101906.88;;;-5.03;100.00
48364;BME280;34170;54.364;18.582;2022-12-18T06:30:22;101903.44;;;-5.11;100.00
48364;BME280;34170;54.364;18.582;2022-12-18T06:32:50;101918.22;;;-5.00;100.00
48364;BME280;34170;54.364;18.582;2022-12-18T06:35:22;101923.53;;;-5.13;100.00
48364;BME280;34170;54.364;18.582;2022-12-18T06:37:50;101925.25;;;-5.00;100.00
48364;BME280;34170;54.364;18.582;2022-12-18T06:40:18;101927.91;;;-5.11;100.00
48364;BME280;34170;54.364;18.582;2022-12-18T06:42:45;101928.81;;;-5.20;100.00
48364;BME280;34170;54.364;18.582;2022-12-18T06:45:13;101951.53;;;-5.22;100.00
48364;BME280;34170;54.364;18.582;2022-12-18T06:47:41;101934.91;;;-5.21;100.00
48364;BME280;34170;54.364;18.582;2022-12-18T06:50:08;101939.28;;;-5.17;100.00
48364;BME280;34170;54.364;18.582;2022-12-18T06:52:36;101946.28;;;-5.12;100.00
48364;BME280;34170;54.364;18.582;2022-12-18T06:55:04;101952.38;;;-5.13;100.00
48364;BME280;34170;54.364;18.582;2022-12-18T06:57:33;101947.16;;;-5.17;100.00
48364;BME280;34170;54.364;18.582;2022-12-18T07:00:00;101964.69;;;-5.34;100.00
48364;BME280;34170;54.364;18.582;2022-12-18T07:02:28;101967.28;;;-5.28;100.00
48364;BME280;34170;54.364;18.582;2022-12-18T07:04:55;101962.94;;;-5.35;100.00
48364;BME280;34170;54.364;18.582;2022-12-18T07:07:23;101973.41;;;-5.23;100.00
48364;BME280;34170;54.364;18.582;2022-12-18T07:09:50;101974.25;;;-5.21;100.00
48364;BME280;34170;54.364;18.582;2022-12-18T07:12:18;101973.41;;;-5.35;100.00
48364;BME280;34170;54.364;18.582;2022-12-18T07:14:45;101981.25;;;-5.23;100.00
48364;BME280;34170;54.364;18.582;2022-12-18T07:17:13;101978.66;;;-5.32;100.00
48364;BME280;34170;54.364;18.582;2022-12-18T07:19:40;101992.66;;;-5.36;100.00
48364;BME280;34170;54.364;18.582;2022-12-18T07:22:07;101990.91;;;-5.39;100.00
48364;BME280;34170;54.364;18.582;2022-12-18T07:24:35;101990.88;;;-5.15;100.00
48364;BME280;34170;54.364;18.582;2022-12-18T07:27:02;101987.38;;;-5.11;100.00
48364;BME280;34170;54.364;18.582;2022-12-18T07:29:30;101989.06;;;-5.03;100.00
48364;BME280;34170;54.364;18.582;2022-12-18T07:31:58;101991.78;;;-5.27;100.00
48364;BME280;34170;54.364;18.582;2022-12-18T07:34:25;101981.28;;;-5.35;100.00
48364;BME280;34170;54.364;18.582;2022-12-18T07:36:53;101988.28;;;-5.39;100.00
48364;BME280;34170;54.364;18.582;2022-12-18T07:39:20;101990.00;;;-5.16;100.00
48364;BME280;34170;54.364;18.582;2022-12-18T07:41:47;102007.47;;;-5.12;100.00
48364;BME280;34170;54.364;18.582;2022-12-18T07:44:35;101993.53;;;-5.22;100.00
48364;BME280;34170;54.364;18.582;2022-12-18T07:47:03;102018.88;;;-5.31;100.00
48364;BME280;34170;54.364;18.582;2022-12-18T07:49:37;102029.34;;;-5.11;100.00
48364;BME280;34170;54.364;18.582;2022-12-18T07:52:05;102018.00;;;-5.20;100.00
48364;BME280;34170;54.364;18.582;2022-12-18T07:54:32;102024.06;;;-4.99;100.00
48364;BME280;34170;54.364;18.582;2022-12-18T07:57:00;102008.34;;;-5.02;100.00
48364;BME280;34170;54.364;18.582;2022-12-18T07:59:27;102006.59;;;-4.97;100.00
48364;BME280;34170;54.364;18.582;2022-12-18T08:01:55;102011.81;;;-5.00;100.00
48364;BME280;34170;54.364;18.582;2022-12-18T08:04:22;102024.06;;;-4.91;100.00
48364;BME280;34170;54.364;18.582;2022-12-18T08:06:50;102008.31;;;-4.99;100.00
48364;BME280;34170;54.364;18.582;2022-12-18T08:09:17;102018.78;;;-4.84;100.00
48364;BME280;34170;54.364;18.582;2022-12-18T08:11:45;102024.00;;;-4.71;100.00
48364;BME280;34170;54.364;18.582;2022-12-18T08:14:12;102030.06;;;-4.55;100.00
48364;BME280;34170;54.364;18.582;2022-12-18T08:16:41;102037.13;;;-4.73;100.00
48364;BME280;34170;54.364;18.582;2022-12-18T08:19:08;102041.38;;;-4.43;100.00
48364;BME280;34170;54.364;18.582;2022-12-18T08:21:36;102041.31;;;-4.27;100.00
48364;BME280;34170;54.364;18.582;2022-12-18T08:24:04;102038.56;;;-4.06;100.00
48364;BME280;34170;54.364;18.582;2022-12-18T08:26:32;102033.16;;;-3.86;100.00
48364;BME280;34170;54.364;18.582;2022-12-18T08:28:59;102037.81;;;-3.13;100.00
48364;BME280;34170;54.364;18.582;2022-12-18T08:31:29;102034.94;;;-2.16;100.00
48364;BME280;34170;54.364;18.582;2022-12-18T08:33:57;102039.03;;;-1.39;100.00
48364;BME280;34170;54.364;18.582;2022-12-18T08:36:25;102036.19;;;-1.26;100.00
48364;BME280;34170;54.364;18.582;2022-12-18T08:38:53;102043.78;;;-1.09;100.00
48364;BME280;34170;54.364;18.582;2022-12-18T08:41:21;102030.19;;;-0.43;100.00
48364;BME280;34170;54.364;18.582;2022-12-18T08:43:48;102026.69;;;-0.04;95.55
48364;BME280;34170;54.364;18.582;2022-12-18T08:46:38;102040.06;;;0.98;90.98
48364;BME280;34170;54.364;18.582;2022-12-18T08:49:07;102052.59;;;1.57;87.12
48364;BME280;34170;54.364;18.582;2022-12-18T08:51:35;102048.06;;;1.90;82.35
48364;BME280;34170;54.364;18.582;2022-12-18T08:54:03;102054.06;;;2.25;76.10
48364;BME280;34170;54.364;18.582;2022-12-18T08:56:33;102053.44;;;2.97;75.24
48364;BME280;34170;54.364;18.582;2022-12-18T08:59:01;102047.25;;;2.71;72.16
48364;BME280;34170;54.364;18.582;2022-12-18T09:01:29;102053.00;;;2.57;69.40
48364;BME280;34170;54.364;18.582;2022-12-18T09:03:57;102053.59;;;2.12;69.49
48364;BME280;34170;54.364;18.582;2022-12-18T09:06:25;102058.81;;;2.43;67.82
48364;BME280;34170;54.364;18.582;2022-12-18T09:08:53;102058.84;;;2.14;69.86
48364;BME280;34170;54.364;18.582;2022-12-18T09:11:23;102059.50;;;1.92;70.25
48364;BME280;34170;54.364;18.582;2022-12-18T09:13:52;102075.69;;;2.13;69.52
48364;BME280;34170;54.364;18.582;2022-12-18T09:16:22;102063.75;;;1.98;69.29
48364;BME280;34170;54.364;18.582;2022-12-18T09:18:58;102068.56;;;2.15;67.28
48364;BME280;34170;54.364;18.582;2022-12-18T09:21:31;102066.91;;;2.10;68.12
48364;BME280;34170;54.364;18.582;2022-12-18T09:24:04;102052.56;;;2.44;66.95
48364;BME280;34170;54.364;18.582;2022-12-18T09:26:35;102057.34;;;2.33;65.58
48364;BME280;34170;54.364;18.582;2022-12-18T09:29:03;102066.81;;;2.14;66.22
48364;BME280;34170;54.364;18.582;2022-12-18T09:31:31;102070.94;;;1.94;66.44
48364;BME280;34170;54.364;18.582;2022-12-18T09:33:58;102072.00;;;1.88;66.66
48364;BME280;34170;54.364;18.582;2022-12-18T09:36:26;102059.47;;;1.32;68.17
48364;BME280;34170;54.364;18.582;2022-12-18T09:38:54;102061.91;;;1.40;68.08
48364;BME280;34170;54.364;18.582;2022-12-18T09:47:10;102072.06;;;0.55;69.75
48364;BME280;34170;54.364;18.582;2022-12-18T09:49:44;102062.94;;;0.30;72.49
48364;BME280;34170;54.364;18.582;2022-12-18T09:54:46;102074.72;;;0.55;72.48
48364;BME280;34170;54.364;18.582;2022-12-18T09:57:20;102070.78;;;1.05;71.03
48364;BME280;34170;54.364;18.582;2022-12-18T09:59:55;102065.84;;;0.91;68.69
48364;BME280;34170;54.364;18.582;2022-12-18T10:02:25;102042.31;;;1.13;68.73
48364;BME280;34170;54.364;18.582;2022-12-18T10:05:15;102068.59;;;0.88;69.18
48364;BME280;34170;54.364;18.582;2022-12-18T10:08:08;102059.13;;;1.12;67.91
48364;BME280;34170;54.364;18.582;2022-12-18T10:10:52;102055.66;;;1.41;66.90
48364;BME280;34170;54.364;18.582;2022-12-18T10:26:46;102096.16;;;2.37;61.34
48364;BME280;34170;54.364;18.582;2022-12-18T10:29:16;102090.59;;;2.45;61.69
48364;BME280;34170;54.364;18.582;2022-12-18T10:31:43;102091.69;;;2.66;61.00
48364;BME280;34170;54.364;18.582;2022-12-18T10:34:12;102089.91;;;2.40;61.17
48364;BME280;34170;54.364;18.582;2022-12-18T10:36:40;102082.06;;;2.63;59.33
48364;BME280;34170;54.364;18.582;2022-12-18T10:39:20;102073.63;;;1.93;61.94
48364;BME280;34170;54.364;18.582;2022-12-18T10:41:49;102078.31;;;1.53;63.81
48364;BME280;34170;54.364;18.582;2022-12-18T10:44:27;102071.94;;;0.94;67.32
48364;BME280;34170;54.364;18.582;2022-12-18T10:47:02;102073.66;;;0.63;67.61
48364;BME280;34170;54.364;18.582;2022-12-18T10:49:47;102082.22;;;0.72;68.46
48364;BME280;34170;54.364;18.582;2022-12-18T10:52:19;102091.72;;;0.81;67.46
48364;BME280;34170;54.364;18.582;2022-12-18T10:55:01;102064.50;;;0.74;68.29
48364;BME280;34170;54.364;18.582;2022-12-18T10:57:35;102068.81;;;0.79;67.86
48364;BME280;34170;54.364;18.582;2022-12-18T11:02:49;102069.66;;;0.45;68.20
48364;BME280;34170;54.364;18.582;2022-12-18T11:05:30;102086.34;;;0.11;69.89
48364;BME280;34170;54.364;18.582;2022-12-18T11:07:59;102083.94;;;-0.02;71.46
48364;BME280;34170;54.364;18.582;2022-12-18T11:10:32;102074.13;;;-0.37;72.52
48364;BME280;34170;54.364;18.582;2022-12-18T11:13:18;102069.72;;;-0.38;73.77
48364;BME280;34170;54.364;18.582;2022-12-18T11:15:47;102084.28;;;-0.61;74.48
48364;BME280;34170;54.364;18.582;2022-12-18T11:18:48;102088.22;;;-0.83;76.99
48364;BME280;34170;54.364;18.582;2022-12-18T11:21:16;102086.63;;;-0.92;77.46
48364;BME280;34170;54.364;18.582;2022-12-18T11:23:51;102077.22;;;-1.08;79.50
48364;BME280;34170;54.364;18.582;2022-12-18T11:26:20;102076.63;;;-1.24;79.39
48364;BME280;34170;54.364;18.582;2022-12-18T11:29:08;102079.56;;;-1.41;80.67
48364;BME280;34170;54.364;18.582;2022-12-18T11:31:36;102083.25;;;-1.53;81.58
48364;BME280;34170;54.364;18.582;2022-12-18T11:36:58;102072.00;;;-1.64;83.82
48364;BME280;34170;54.364;18.582;2022-12-18T11:39:36;102085.13;;;-1.63;83.58
48364;BME280;34170;54.364;18.582;2022-12-18T11:44:57;102106.19;;;-1.58;84.44
48364;BME280;34170;54.364;18.582;2022-12-18T11:47:32;102120.34;;;-1.65;84.54
48364;BME280;34170;54.364;18.582;2022-12-18T11:50:05;102113.28;;;-1.62;85.31
48364;BME280;34170;54.364;18.582;2022-12-18T11:52:40;102115.38;;;-1.87;87.44
48364;BME280;34170;54.364;18.582;2022-12-18T11:55:12;102113.44;;;-1.73;86.84
48364;BME280;34170;54.364;18.582;2022-12-18T12:03:03;102129.09;;;-1.62;86.71
48364;BME280;34170;54.364;18.582;2022-12-18T12:16:18;102133.44;;;-1.58;87.37
48364;BME280;34170;54.364;18.582;2022-12-18T12:19:17;102131.72;;;-1.60;87.35
48364;BME280;34170;54.364;18.582;2022-12-18T12:22:08;102122.84;;;-1.56;87.44
48364;BME280;34170;54.364;18.582;2022-12-18T12:27:44;102123.97;;;-1.71;87.99
48364;BME280;34170;54.364;18.582;2022-12-18T12:30:25;102114.22;;;-1.66;87.19
48364;BME280;34170;54.364;18.582;2022-12-18T12:38:47;102098.47;;;-1.72;85.02
48364;BME280;34170;54.364;18.582;2022-12-18T12:41:22;102097.59;;;-1.73;84.92
48364;BME280;34170;54.364;18.582;2022-12-18T12:44:29;102102.91;;;-1.74;83.58
48364;BME280;34170;54.364;18.582;2022-12-18T12:47:07;102108.28;;;-1.82;83.77
48364;BME280;34170;54.364;18.582;2022-12-18T12:49:39;102110.00;;;-1.81;83.62
48364;BME280;34170;54.364;18.582;2022-12-18T12:52:15;102100.41;;;-1.83;84.26
48364;BME280;34170;54.364;18.582;2022-12-18T12:54:45;102102.25;;;-1.92;85.23
48364;BME280;34170;54.364;18.582;2022-12-18T12:57:21;102103.03;;;-1.83;83.64
48364;BME280;34170;54.364;18.582;2022-12-18T13:02:33;102109.09;;;-1.75;83.27
48364;BME280;34170;54.364;18.582;2022-12-18T13:05:28;102101.31;;;-1.86;83.04
48364;BME280;34170;54.364;18.582;2022-12-18T13:08:02;102103.16;;;-1.93;83.78
48364;BME280;34170;54.364;18.582;2022-12-18T13:10:43;102094.44;;;-1.96;84.65
48364;BME280;34170;54.364;18.582;2022-12-18T13:13:15;102096.28;;;-2.04;85.75
48364;BME280;34170;54.364;18.582;2022-12-18T13:16:04;102106.75;;;-1.98;84.86
48364;BME280;34170;54.364;18.582;2022-12-18T13:18:34;102099.69;;;-1.95;84.50
48364;BME280;34170;54.364;18.582;2022-12-18T13:21:21;102111.06;;;-1.91;84.90
48364;BME280;34170;54.364;18.582;2022-12-18T13:23:51;102111.28;;;-2.09;84.88
48364;BME280;34170;54.364;18.582;2022-12-18T13:28:56;102113.09;;;-2.15;86.50
48364;BME280;34170;54.364;18.582;2022-12-18T13:34:23;102110.44;;;-2.13;87.77
48364;BME280;34170;54.364;18.582;2022-12-18T13:36:55;102111.25;;;-2.08;87.50
48364;BME280;34170;54.364;18.582;2022-12-18T13:39:31;102107.03;;;-2.20;88.56
48364;BME280;34170;54.364;18.582;2022-12-18T13:47:35;102123.81;;;-2.27;90.89
48364;BME280;34170;54.364;18.582;2022-12-18T13:50:34;102125.75;;;-2.43;93.54
48364;BME280;34170;54.364;18.582;2022-12-18T13:53:03;102119.53;;;-2.37;93.72
48364;BME280;34170;54.364;18.582;2022-12-18T13:55:32;102100.44;;;-2.56;94.68
48364;BME280;34170;54.364;18.582;2022-12-18T13:58:04;102101.50;;;-2.74;95.70
48364;BME280;34170;54.364;18.582;2022-12-18T14:00:32;102106.69;;;-2.66;96.86
48364;BME280;34170;54.364;18.582;2022-12-18T14:02:59;102113.66;;;-2.61;96.88
48364;BME280;34170;54.364;18.582;2022-12-18T14:05:33;102110.34;;;-2.81;97.32
48364;BME280;34170;54.364;18.582;2022-12-18T14:08:08;102110.25;;;-2.72;98.32
48364;BME280;34170;54.364;18.582;2022-12-18T14:10:41;102118.34;;;-2.92;98.34
48364;BME280;34170;54.364;18.582;2022-12-18T14:13:23;102117.44;;;-2.88;99.66
48364;BME280;34170;54.364;18.582;2022-12-18T14:15:51;102130.47;;;-2.76;98.97
48364;BME280;34170;54.364;18.582;2022-12-18T14:18:23;102130.66;;;-2.94;99.17
48364;BME280;34170;54.364;18.582;2022-12-18T14:20:54;102120.22;;;-3.07;100.00
48364;BME280;34170;54.364;18.582;2022-12-18T14:23:36;102114.09;;;-3.04;100.00
48364;BME280;34170;54.364;18.582;2022-12-18T14:26:22;102116.00;;;-3.21;100.00
48364;BME280;34170;54.364;18.582;2022-12-18T14:28:50;102109.91;;;-3.33;100.00
48364;BME280;34170;54.364;18.582;2022-12-18T14:31:19;102108.97;;;-3.22;100.00